Aeroporto :
LOGIN :

Iscrizione | Disclaimer

   EN    FR    IT 

 










Sommario :    VFR   VFR Marginale   IFR   IFR Intensivo   IFR Molto Intensivo
Visibilità : 
Base nubi : 
>= 8 km
>= 3000ft
5 / 8 km
1000 / 3000 ft
1500m / 5 km
500 / 1000 ft
800 / 1500m
200 / 500 ft
< 800m
< 200 ft
Simboli :   Temporali  Nebbia  Neve Forte  Precipitazioni Forti  Vento > 20 kt
SIGMETs :   Varie  Temporali  Ghiacco  Turbolenza  Onda orograficha  Ceneri Vulcaniche







- Altitudine del aeroporto : 52 ft
- Codice IATA : IOM
- Carte del aeroporto


EGNS - Isle of Man

ULTIMO METAR :
  • 170650Z 21014KT 9999 FEW003 BKN006 12/11 Q1010 TEMPO SCT006

METARs OBSOLETI :
  • 170620Z 21013KT 9999 SCT006 12/11 Q1010 TEMPO BKN006
  • 170550Z 21014KT 9999 FEW008 12/10 Q1010 NOSIG
  • 170520Z 21013KT 9999 FEW008 12/11 Q1010 NOSIG
  • 170450Z 21014KT 9999 FEW008 12/10 Q1010
  • 170420Z 21013KT 9999 FEW008 12/10 Q1010

TAF TAF EGNS
Valido dal 17 a 06 ore il 17 a 15 ore UTC


170500Z 1706/1715 20018KT 9999 FEW008 SCT020
Nessun NOTAM noto per questo aeroporto.
1 SIGMET conosciuto per la FIR London (EGTT) :
 
Forte onda orograficha
EGTT SIGMET 01 VALID 170330/170730 EGRR
EGTT LONDON FIR SEV MTW FCST WI N5315 E00000 - N5202 W00339 - N5305 W00354 - N5332 W00206 - N5500 W00407 - N5500 W00140 - N5315 E00000 FL030/180 STNR WKN=



MetMap, La meteo Aeronautica in un colpo d'occhio ! - Copyright ORBIFLY Dicembre 2007 - Disclaimer

ORBIFLY MET'MAP TEAM :

Programmazione e sviluppo : Alexandra Zaïnal
Concezione e sviluppo : Baudouin d'Aumeries
Co-Programmazione e sviluppo : Marc-Olivier Méhu
Supporto tecnico e logistico : Manuel Goepfert
Aiuto per la traduzione : Arnaldo La Scala

Contatto : metmap@orbifly.com




FONTI E CREDITI :

   NOAA